sensor_id;sensor_type;location;lat;lon;timestamp;pressure;altitude;pressure_sealevel;temperature;humidity
46223;BME280;31943;51.410;7.564;2023-04-22T00:02:10;99589.22;;;10.39;63.30
46223;BME280;31943;51.410;7.564;2023-04-22T00:04:36;99588.34;;;10.34;63.35
46223;BME280;31943;51.410;7.564;2023-04-22T00:07:03;99593.59;;;10.31;63.38
46223;BME280;31943;51.410;7.564;2023-04-22T00:09:29;99587.44;;;10.26;63.40
46223;BME280;31943;51.410;7.564;2023-04-22T00:11:54;99585.72;;;10.22;63.43
46223;BME280;31943;51.410;7.564;2023-04-22T00:14:20;99580.47;;;10.19;63.68
46223;BME280;31943;51.410;7.564;2023-04-22T00:16:46;99577.88;;;10.14;63.22
46223;BME280;31943;51.410;7.564;2023-04-22T00:19:12;99576.13;;;10.08;63.33
46223;BME280;31943;51.410;7.564;2023-04-22T00:21:37;99578.72;;;10.07;63.23
46223;BME280;31943;51.410;7.564;2023-04-22T00:24:05;99570.03;;;10.03;63.57
46223;BME280;31943;51.410;7.564;2023-04-22T00:26:31;99570.91;;;10.01;63.68
46223;BME280;31943;51.410;7.564;2023-04-22T00:28:57;99575.25;;;10.00;63.70
46223;BME280;31943;51.410;7.564;2023-04-22T00:31:24;99570.03;;;9.97;63.47
46223;BME280;31943;51.410;7.564;2023-04-22T00:33:50;99569.16;;;9.94;63.39
46223;BME280;31943;51.410;7.564;2023-04-22T00:36:15;99573.50;;;9.92;63.44
46223;BME280;31943;51.410;7.564;2023-04-22T00:38:47;99571.75;;;9.89;63.30
46223;BME280;31943;51.410;7.564;2023-04-22T00:41:23;99569.16;;;9.86;63.58
46223;BME280;31943;51.410;7.564;2023-04-22T00:43:50;99569.16;;;9.83;63.36
46223;BME280;31943;51.410;7.564;2023-04-22T00:46:19;99570.88;;;9.79;63.49
46223;BME280;31943;51.410;7.564;2023-04-22T00:48:44;99566.53;;;9.77;63.61
46223;BME280;31943;51.410;7.564;2023-04-22T00:51:11;99569.09;;;9.74;63.68
46223;BME280;31943;51.410;7.564;2023-04-22T00:53:36;99568.25;;;9.72;63.46
46223;BME280;31943;51.410;7.564;2023-04-22T00:56:03;99565.63;;;9.70;63.86
46223;BME280;31943;51.410;7.564;2023-04-22T00:58:30;99569.13;;;9.70;63.66
46223;BME280;31943;51.410;7.564;2023-04-22T01:00:56;99563.03;;;9.68;63.84
46223;BME280;31943;51.410;7.564;2023-04-22T01:03:25;99565.63;;;9.67;63.74
46223;BME280;31943;51.410;7.564;2023-04-22T01:05:51;99562.16;;;9.66;64.05
46223;BME280;31943;51.410;7.564;2023-04-22T01:08:17;99556.94;;;9.65;64.00
46223;BME280;31943;51.410;7.564;2023-04-22T01:10:43;99557.81;;;9.65;64.43
46223;BME280;31943;51.410;7.564;2023-04-22T01:13:09;99556.97;;;9.66;64.65
46223;BME280;31943;51.410;7.564;2023-04-22T01:15:36;99560.41;;;9.67;64.87
46223;BME280;31943;51.410;7.564;2023-04-22T01:18:02;99565.63;;;9.67;64.67
46223;BME280;31943;51.410;7.564;2023-04-22T01:20:28;99556.94;;;9.65;65.09
46223;BME280;31943;51.410;7.564;2023-04-22T01:22:54;99558.69;;;9.64;64.92
46223;BME280;31943;51.410;7.564;2023-04-22T01:25:22;99551.72;;;9.63;65.29
46223;BME280;31943;51.410;7.564;2023-04-22T01:27:48;99556.06;;;9.63;65.30
46223;BME280;31943;51.410;7.564;2023-04-22T01:30:14;99557.78;;;9.62;65.69
46223;BME280;31943;51.410;7.564;2023-04-22T01:32:40;99558.66;;;9.61;65.42
46223;BME280;31943;51.410;7.564;2023-04-22T01:35:07;99556.94;;;9.63;65.80
46223;BME280;31943;51.410;7.564;2023-04-22T01:37:33;99559.53;;;9.63;65.93
46223;BME280;31943;51.410;7.564;2023-04-22T01:39:59;99569.09;;;9.64;65.97
46223;BME280;31943;51.410;7.564;2023-04-22T01:42:28;99557.81;;;9.65;65.73
46223;BME280;31943;51.410;7.564;2023-04-22T01:44:55;99558.66;;;9.66;65.62
46223;BME280;31943;51.410;7.564;2023-04-22T01:47:21;99559.56;;;9.66;65.76
46223;BME280;31943;51.410;7.564;2023-04-22T01:49:46;99562.16;;;9.66;66.00
46223;BME280;31943;51.410;7.564;2023-04-22T01:52:13;99563.03;;;9.68;66.23
46223;BME280;31943;51.410;7.564;2023-04-22T01:54:38;99569.09;;;9.69;65.93
46223;BME280;31943;51.410;7.564;2023-04-22T01:57:09;99572.56;;;9.69;66.28
46223;BME280;31943;51.410;7.564;2023-04-22T01:59:44;99575.19;;;9.69;66.05
46223;BME280;31943;51.410;7.564;2023-04-22T02:02:10;99566.50;;;9.67;66.42
46223;BME280;31943;51.410;7.564;2023-04-22T02:04:36;99571.69;;;9.67;66.45
46223;BME280;31943;51.410;7.564;2023-04-22T02:07:02;99569.97;;;9.66;66.86
46223;BME280;31943;51.410;7.564;2023-04-22T02:09:27;99579.53;;;9.67;66.69
46223;BME280;31943;51.410;7.564;2023-04-22T02:11:53;99577.78;;;9.68;66.96
46223;BME280;31943;51.410;7.564;2023-04-22T02:14:21;99575.19;;;9.69;66.81
46223;BME280;31943;51.410;7.564;2023-04-22T02:16:50;99565.63;;;9.70;66.60
46223;BME280;31943;51.410;7.564;2023-04-22T02:19:15;99571.72;;;9.69;66.55
46223;BME280;31943;51.410;7.564;2023-04-22T02:21:43;99568.22;;;9.70;66.75
46223;BME280;31943;51.410;7.564;2023-04-22T02:24:08;99567.38;;;9.69;66.88
46223;BME280;31943;51.410;7.564;2023-04-22T02:26:34;99569.13;;;9.70;66.87
46223;BME280;31943;51.410;7.564;2023-04-22T02:29:00;99570.84;;;9.70;66.69
46223;BME280;31943;51.410;7.564;2023-04-22T02:31:27;99569.97;;;9.71;66.67
46223;BME280;31943;51.410;7.564;2023-04-22T02:33:54;99565.63;;;9.72;67.09
46223;BME280;31943;51.410;7.564;2023-04-22T02:36:20;99569.97;;;9.71;66.79
46223;BME280;31943;51.410;7.564;2023-04-22T02:38:46;99570.00;;;9.73;66.75
46223;BME280;31943;51.410;7.564;2023-04-22T02:41:11;99570.84;;;9.72;66.78
46223;BME280;31943;51.410;7.564;2023-04-22T02:43:37;99566.50;;;9.72;66.76
46223;BME280;31943;51.410;7.564;2023-04-22T02:46:04;99559.56;;;9.73;66.98
46223;BME280;31943;51.410;7.564;2023-04-22T02:48:29;99568.25;;;9.72;67.44
46223;BME280;31943;51.410;7.564;2023-04-22T02:50:57;99559.56;;;9.69;67.30
46223;BME280;31943;51.410;7.564;2023-04-22T02:53:23;99563.03;;;9.68;67.31
46223;BME280;31943;51.410;7.564;2023-04-22T02:55:50;99567.38;;;9.69;67.49
46223;BME280;31943;51.410;7.564;2023-04-22T02:58:15;99567.38;;;9.71;67.53
46223;BME280;31943;51.410;7.564;2023-04-22T03:00:41;99562.19;;;9.73;67.43
46223;BME280;31943;51.410;7.564;2023-04-22T03:03:06;99549.16;;;9.73;67.66
46223;BME280;31943;51.410;7.564;2023-04-22T03:05:32;99546.56;;;9.74;67.67
46223;BME280;31943;51.410;7.564;2023-04-22T03:08:01;99543.06;;;9.75;67.56
46223;BME280;31943;51.410;7.564;2023-04-22T03:10:27;99548.28;;;9.75;67.72
46223;BME280;31943;51.410;7.564;2023-04-22T03:12:53;99548.28;;;9.75;67.60
46223;BME280;31943;51.410;7.564;2023-04-22T03:15:20;99548.28;;;9.75;67.69
46223;BME280;31943;51.410;7.564;2023-04-22T03:17:59;99545.69;;;9.77;67.39
46223;BME280;31943;51.410;7.564;2023-04-22T03:20:34;99544.81;;;9.76;67.62
46223;BME280;31943;51.410;7.564;2023-04-22T03:23:01;99536.13;;;9.76;67.31
46223;BME280;31943;51.410;7.564;2023-04-22T03:25:27;99542.22;;;9.75;67.61
46223;BME280;31943;51.410;7.564;2023-04-22T03:27:53;99531.78;;;9.75;67.72
46223;BME280;31943;51.410;7.564;2023-04-22T03:30:19;99530.03;;;9.74;67.44
46223;BME280;31943;51.410;7.564;2023-04-22T03:32:45;99528.31;;;9.66;67.76
46223;BME280;31943;51.410;7.564;2023-04-22T03:35:11;99531.75;;;9.61;67.88
46223;BME280;31943;51.410;7.564;2023-04-22T03:37:38;99528.28;;;9.59;68.19
46223;BME280;31943;51.410;7.564;2023-04-22T03:40:08;99529.13;;;9.62;68.21
46223;BME280;31943;51.410;7.564;2023-04-22T03:42:34;99526.53;;;9.65;68.52
46223;BME280;31943;51.410;7.564;2023-04-22T03:45:00;99515.28;;;9.66;67.96
46223;BME280;31943;51.410;7.564;2023-04-22T03:47:25;99512.66;;;9.68;68.21
46223;BME280;31943;51.410;7.564;2023-04-22T03:49:51;99516.16;;;9.68;68.15
46223;BME280;31943;51.410;7.564;2023-04-22T03:52:16;99508.31;;;9.70;68.16
46223;BME280;31943;51.410;7.564;2023-04-22T03:54:42;99502.22;;;9.69;67.90
46223;BME280;31943;51.410;7.564;2023-04-22T03:57:09;99510.06;;;9.71;68.23
46223;BME280;31943;51.410;7.564;2023-04-22T03:59:36;99512.69;;;9.74;68.13
46223;BME280;31943;51.410;7.564;2023-04-22T04:02:02;99503.97;;;9.74;67.88
46223;BME280;31943;51.410;7.564;2023-04-22T04:04:28;99507.47;;;9.74;68.29
46223;BME280;31943;51.410;7.564;2023-04-22T04:06:53;99503.13;;;9.76;68.08
46223;BME280;31943;51.410;7.564;2023-04-22T04:09:19;99504.84;;;9.76;68.19
46223;BME280;31943;51.410;7.564;2023-04-22T04:11:44;99502.25;;;9.76;68.23
46223;BME280;31943;51.410;7.564;2023-04-22T04:14:15;99495.31;;;9.75;68.18
46223;BME280;31943;51.410;7.564;2023-04-22T04:16:40;99487.50;;;9.75;67.91
46223;BME280;31943;51.410;7.564;2023-04-22T04:19:06;99492.69;;;9.73;68.34
46223;BME280;31943;51.410;7.564;2023-04-22T04:21:32;99495.31;;;9.73;68.06
46223;BME280;31943;51.410;7.564;2023-04-22T04:23:57;99498.75;;;9.72;68.20
46223;BME280;31943;51.410;7.564;2023-04-22T04:26:23;99489.25;;;9.74;68.46
46223;BME280;31943;51.410;7.564;2023-04-22T04:28:49;99486.59;;;9.76;68.08
46223;BME280;31943;51.410;7.564;2023-04-22T04:31:16;99490.06;;;9.72;68.50
46223;BME280;31943;51.410;7.564;2023-04-22T04:33:42;99490.94;;;9.69;68.47
46223;BME280;31943;51.410;7.564;2023-04-22T04:36:11;99485.75;;;9.70;68.69
46223;BME280;31943;51.410;7.564;2023-04-22T04:38:36;99484.88;;;9.75;68.71
46223;BME280;31943;51.410;7.564;2023-04-22T04:41:02;99474.47;;;9.75;68.62
46223;BME280;31943;51.410;7.564;2023-04-22T04:43:28;99467.50;;;9.74;68.62
46223;BME280;31943;51.410;7.564;2023-04-22T04:45:54;99473.59;;;9.74;68.25
46223;BME280;31943;51.410;7.564;2023-04-22T04:48:21;99468.38;;;9.76;68.76
46223;BME280;31943;51.410;7.564;2023-04-22T04:50:46;99471.84;;;9.75;68.65
46223;BME280;31943;51.410;7.564;2023-04-22T04:53:14;99473.59;;;9.77;68.46
46223;BME280;31943;51.410;7.564;2023-04-22T04:55:41;99479.66;;;9.78;68.77
46223;BME280;31943;51.410;7.564;2023-04-22T04:58:07;99471.84;;;9.79;68.64
46223;BME280;31943;51.410;7.564;2023-04-22T05:00:35;99467.53;;;9.78;68.42
46223;BME280;31943;51.410;7.564;2023-04-22T05:03:00;99468.41;;;9.80;68.37
46223;BME280;31943;51.410;7.564;2023-04-22T05:05:28;99464.91;;;9.81;68.26
46223;BME280;31943;51.410;7.564;2023-04-22T05:07:54;99461.44;;;9.82;68.23
46223;BME280;31943;51.410;7.564;2023-04-22T05:10:19;99467.53;;;9.86;68.58
46223;BME280;31943;51.410;7.564;2023-04-22T05:12:45;99464.03;;;9.87;68.08
46223;BME280;31943;51.410;7.564;2023-04-22T05:15:11;99474.47;;;9.87;68.63
46223;BME280;31943;51.410;7.564;2023-04-22T05:17:36;99476.19;;;9.89;68.43
46223;BME280;31943;51.410;7.564;2023-04-22T05:20:03;99479.69;;;9.93;68.43
46223;BME280;31943;51.410;7.564;2023-04-22T05:22:30;99476.22;;;9.94;68.72
46223;BME280;31943;51.410;7.564;2023-04-22T05:24:56;99483.16;;;9.98;68.44
46223;BME280;31943;51.410;7.564;2023-04-22T05:27:21;99471.00;;;10.02;68.41
46223;BME280;31943;51.410;7.564;2023-04-22T05:29:47;99476.19;;;10.05;68.54
46223;BME280;31943;51.410;7.564;2023-04-22T05:32:13;99470.97;;;10.05;68.43
46223;BME280;31943;51.410;7.564;2023-04-22T05:34:38;99464.91;;;10.04;68.32
46223;BME280;31943;51.410;7.564;2023-04-22T05:37:04;99472.75;;;10.07;68.60
46223;BME280;31943;51.410;7.564;2023-04-22T05:39:31;99468.38;;;10.11;68.69
46223;BME280;31943;51.410;7.564;2023-04-22T05:41:56;99466.63;;;10.16;68.50
46223;BME280;31943;51.410;7.564;2023-04-22T05:44:22;99470.13;;;10.21;68.62
46223;BME280;31943;51.410;7.564;2023-04-22T05:46:48;99469.25;;;10.25;68.66
46223;BME280;31943;51.410;7.564;2023-04-22T05:49:13;99467.50;;;10.31;68.59
46223;BME280;31943;51.410;7.564;2023-04-22T05:51:39;99466.66;;;10.30;68.88
46223;BME280;31943;51.410;7.564;2023-04-22T05:54:04;99465.78;;;10.36;68.64
46223;BME280;31943;51.410;7.564;2023-04-22T05:56:31;99469.25;;;10.41;68.61
46223;BME280;31943;51.410;7.564;2023-04-22T05:58:57;99467.50;;;10.41;68.94
46223;BME280;31943;51.410;7.564;2023-04-22T06:04:00;99463.13;;;10.48;69.01
46223;BME280;31943;51.410;7.564;2023-04-22T06:06:29;99468.34;;;10.56;68.64
46223;BME280;31943;51.410;7.564;2023-04-22T06:08:54;99460.50;;;10.56;68.92
46223;BME280;31943;51.410;7.564;2023-04-22T06:11:20;99468.34;;;10.54;68.99
46223;BME280;31943;51.410;7.564;2023-04-22T06:13:48;99463.16;;;10.53;69.27
46223;BME280;31943;51.410;7.564;2023-04-22T06:16:14;99455.31;;;10.53;69.43
46223;BME280;31943;51.410;7.564;2023-04-22T06:18:40;99457.03;;;10.54;69.67
46223;BME280;31943;51.410;7.564;2023-04-22T06:21:05;99459.66;;;10.55;69.66
46223;BME280;31943;51.410;7.564;2023-04-22T06:23:31;99460.50;;;10.60;69.54
46223;BME280;31943;51.410;7.564;2023-04-22T06:25:57;99459.63;;;10.71;69.55
46223;BME280;31943;51.410;7.564;2023-04-22T06:28:23;99450.88;;;10.79;69.56
46223;BME280;31943;51.410;7.564;2023-04-22T06:30:51;99448.25;;;10.87;69.57
46223;BME280;31943;51.410;7.564;2023-04-22T06:33:20;99461.25;;;10.96;69.50
46223;BME280;31943;51.410;7.564;2023-04-22T06:35:45;99452.53;;;11.00;69.64
46223;BME280;31943;51.410;7.564;2023-04-22T06:38:14;99465.56;;;11.08;69.24
46223;BME280;31943;51.410;7.564;2023-04-22T06:40:40;99461.16;;;11.16;69.34
46223;BME280;31943;51.410;7.564;2023-04-22T06:43:07;99468.09;;;11.20;69.14
46223;BME280;31943;51.410;7.564;2023-04-22T06:45:33;99468.06;;;11.30;68.95
46223;BME280;31943;51.410;7.564;2023-04-22T06:48:00;99467.13;;;11.37;68.48
46223;BME280;31943;51.410;7.564;2023-04-22T06:50:25;99459.25;;;11.49;68.43
46223;BME280;31943;51.410;7.564;2023-04-22T06:52:52;99471.34;;;11.61;68.09
46223;BME280;31943;51.410;7.564;2023-04-22T06:55:17;99465.19;;;11.71;68.17
46223;BME280;31943;51.410;7.564;2023-04-22T06:57:43;99461.63;;;11.80;67.95
46223;BME280;31943;51.410;7.564;2023-04-22T07:00:09;99451.09;;;11.87;68.17
46223;BME280;31943;51.410;7.564;2023-04-22T07:02:35;99454.53;;;12.02;67.75
46223;BME280;31943;51.410;7.564;2023-04-22T07:05:04;99453.53;;;12.15;67.58
46223;BME280;31943;51.410;7.564;2023-04-22T07:07:30;99443.81;;;12.30;67.00
46223;BME280;31943;51.410;7.564;2023-04-22T07:09:56;99437.59;;;12.41;66.39
46223;BME280;31943;51.410;7.564;2023-04-22T07:12:22;99440.97;;;12.53;66.21
46223;BME280;31943;51.410;7.564;2023-04-22T07:14:48;99447.81;;;12.64;66.10
46223;BME280;31943;51.410;7.564;2023-04-22T07:17:14;99450.34;;;12.71;65.83
46223;BME280;31943;51.410;7.564;2023-04-22T07:19:39;99445.91;;;12.77;65.71
46223;BME280;31943;51.410;7.564;2023-04-22T07:22:07;99450.22;;;12.81;66.04
46223;BME280;31943;51.410;7.564;2023-04-22T07:24:34;99453.66;;;12.86;66.01
46223;BME280;31943;51.410;7.564;2023-04-22T07:26:59;99440.44;;;12.96;66.24
46223;BME280;31943;51.410;7.564;2023-04-22T07:29:25;99443.00;;;13.00;65.97
46223;BME280;31943;51.410;7.564;2023-04-22T07:31:50;99442.16;;;13.00;65.95
46223;BME280;31943;51.410;7.564;2023-04-22T07:34:18;99443.00;;;13.00;65.69
46223;BME280;31943;51.410;7.564;2023-04-22T07:36:44;99433.13;;;13.21;65.14
46223;BME280;31943;51.410;7.564;2023-04-22T07:39:11;99425.16;;;13.32;64.52
46223;BME280;31943;51.410;7.564;2023-04-22T07:41:37;99421.06;;;13.70;63.15
46223;BME280;31943;51.410;7.564;2023-04-22T07:44:03;99418.56;;;14.15;61.95
46223;BME280;31943;51.410;7.564;2023-04-22T07:46:29;99408.50;;;14.38;60.32
46223;BME280;31943;51.410;7.564;2023-04-22T07:48:55;99417.84;;;14.56;59.07
46223;BME280;31943;51.410;7.564;2023-04-22T07:51:20;99411.47;;;14.68;57.98
46223;BME280;31943;51.410;7.564;2023-04-22T07:53:46;99419.91;;;14.84;56.56
46223;BME280;31943;51.410;7.564;2023-04-22T07:56:14;99417.00;;;14.98;55.49
46223;BME280;31943;51.410;7.564;2023-04-22T07:58:40;99412.28;;;15.14;54.42
46223;BME280;31943;51.410;7.564;2023-04-22T08:01:05;99417.66;;;15.47;54.22
46223;BME280;31943;51.410;7.564;2023-04-22T08:03:31;99408.16;;;15.78;52.85
46223;BME280;31943;51.410;7.564;2023-04-22T08:05:58;99395.09;;;16.10;52.89
46223;BME280;31943;51.410;7.564;2023-04-22T08:08:25;99391.69;;;16.39;52.46
46223;BME280;31943;51.410;7.564;2023-04-22T08:10:51;99392.69;;;16.66;51.25
46223;BME280;31943;51.410;7.564;2023-04-22T08:13:18;99395.53;;;16.90;50.67
46223;BME280;31943;51.410;7.564;2023-04-22T08:15:44;99388.94;;;17.05;50.34
46223;BME280;31943;51.410;7.564;2023-04-22T08:18:10;99382.44;;;17.16;49.61
46223;BME280;31943;51.410;7.564;2023-04-22T08:20:36;99382.88;;;17.31;49.38
46223;BME280;31943;51.410;7.564;2023-04-22T08:23:01;99387.00;;;17.39;48.81
46223;BME280;31943;51.410;7.564;2023-04-22T08:25:27;99390.28;;;17.46;48.67
46223;BME280;31943;51.410;7.564;2023-04-22T08:27:53;99388.09;;;17.61;47.92
46223;BME280;31943;51.410;7.564;2023-04-22T08:30:20;99386.81;;;17.72;48.20
46223;BME280;31943;51.410;7.564;2023-04-22T08:32:46;99377.41;;;17.64;46.88
46223;BME280;31943;51.410;7.564;2023-04-22T08:35:12;99381.03;;;17.61;47.26
46223;BME280;31943;51.410;7.564;2023-04-22T08:37:39;99377.16;;;17.71;47.18
46223;BME280;31943;51.410;7.564;2023-04-22T08:40:06;99381.00;;;17.89;47.82
46223;BME280;31943;51.410;7.564;2023-04-22T08:42:33;99371.47;;;18.10;47.52
46223;BME280;31943;51.410;7.564;2023-04-22T08:44:59;99376.06;;;18.30;47.11
46223;BME280;31943;51.410;7.564;2023-04-22T08:47:28;99368.75;;;18.38;46.08
46223;BME280;31943;51.410;7.564;2023-04-22T08:49:55;99366.19;;;18.35;45.94
46223;BME280;31943;51.410;7.564;2023-04-22T08:52:25;99373.09;;;18.40;46.17
46223;BME280;31943;51.410;7.564;2023-04-22T08:54:50;99360.81;;;18.38;45.72
46223;BME280;31943;51.410;7.564;2023-04-22T08:57:17;99358.63;;;18.50;46.11
46223;BME280;31943;51.410;7.564;2023-04-22T08:59:43;99359.91;;;18.63;45.77
46223;BME280;31943;51.410;7.564;2023-04-22T09:02:15;99357.97;;;18.68;45.45
46223;BME280;31943;51.410;7.564;2023-04-22T09:04:43;99349.84;;;18.73;45.20
46223;BME280;31943;51.410;7.564;2023-04-22T09:07:11;99349.91;;;18.71;44.98
46223;BME280;31943;51.410;7.564;2023-04-22T09:09:38;99344.59;;;18.71;44.29
46223;BME280;31943;51.410;7.564;2023-04-22T09:12:04;99344.50;;;18.74;45.03
46223;BME280;31943;51.410;7.564;2023-04-22T09:14:30;99344.19;;;18.84;45.17
46223;BME280;31943;51.410;7.564;2023-04-22T09:17:02;99350.00;;;18.93;45.03
46223;BME280;31943;51.410;7.564;2023-04-22T09:19:27;99349.81;;;18.98;44.91
46223;BME280;31943;51.410;7.564;2023-04-22T09:21:56;99338.00;;;19.07;45.49
46223;BME280;31943;51.410;7.564;2023-04-22T09:24:22;99340.22;;;19.17;44.54
46223;BME280;31943;51.410;7.564;2023-04-22T09:26:48;99336.28;;;19.06;43.85
46223;BME280;31943;51.410;7.564;2023-04-22T09:29:14;99328.16;;;19.10;44.26
46223;BME280;31943;51.410;7.564;2023-04-22T09:31:40;99340.63;;;19.07;44.02
46223;BME280;31943;51.410;7.564;2023-04-22T09:34:07;99343.38;;;19.05;44.17
46223;BME280;31943;51.410;7.564;2023-04-22T09:36:33;99331.44;;;19.17;44.33
46223;BME280;31943;51.410;7.564;2023-04-22T09:39:01;99337.94;;;19.30;44.23
46223;BME280;31943;51.410;7.564;2023-04-22T09:41:34;99326.78;;;19.44;43.99
46223;BME280;31943;51.410;7.564;2023-04-22T09:44:02;99328.69;;;19.63;42.66
46223;BME280;31943;51.410;7.564;2023-04-22T09:46:29;99329.78;;;19.79;43.92
46223;BME280;31943;51.410;7.564;2023-04-22T09:48:56;99314.03;;;19.97;42.52
46223;BME280;31943;51.410;7.564;2023-04-22T09:51:22;99320.34;;;19.94;42.96
46223;BME280;31943;51.410;7.564;2023-04-22T09:54:00;99329.00;;;19.98;42.04
46223;BME280;31943;51.410;7.564;2023-04-22T09:56:39;99323.44;;;20.04;41.85
46223;BME280;31943;51.410;7.564;2023-04-22T09:59:05;99314.66;;;20.03;40.95
46223;BME280;31943;51.410;7.564;2023-04-22T10:01:34;99312.31;;;20.16;41.43
46223;BME280;31943;51.410;7.564;2023-04-22T10:04:00;99308.63;;;20.39;41.21
46223;BME280;31943;51.410;7.564;2023-04-22T10:06:26;99303.03;;;20.45;40.81
46223;BME280;31943;51.410;7.564;2023-04-22T10:08:51;99305.75;;;20.64;41.07
46223;BME280;31943;51.410;7.564;2023-04-22T10:11:18;99290.59;;;20.85;40.43
46223;BME280;31943;51.410;7.564;2023-04-22T10:13:44;99302.41;;;20.97;40.66
46223;BME280;31943;51.410;7.564;2023-04-22T10:16:10;99294.03;;;21.06;40.43
46223;BME280;31943;51.410;7.564;2023-04-22T10:18:38;99297.03;;;21.18;40.31
46223;BME280;31943;51.410;7.564;2023-04-22T10:21:05;99287.44;;;21.15;39.64
46223;BME280;31943;51.410;7.564;2023-04-22T10:23:31;99294.75;;;21.10;39.97
46223;BME280;31943;51.410;7.564;2023-04-22T10:25:57;99291.38;;;21.06;39.34
46223;BME280;31943;51.410;7.564;2023-04-22T10:28:27;99286.88;;;21.26;40.09
46223;BME280;31943;51.410;7.564;2023-04-22T10:30:53;99297.66;;;21.40;39.30
46223;BME280;31943;51.410;7.564;2023-04-22T10:33:35;99294.16;;;21.40;38.76
46223;BME280;31943;51.410;7.564;2023-04-22T10:36:05;99285.72;;;21.31;39.09
46223;BME280;31943;51.410;7.564;2023-04-22T10:38:33;99297.56;;;21.43;39.55
46223;BME280;31943;51.410;7.564;2023-04-22T10:40:59;99296.88;;;21.57;39.46
46223;BME280;31943;51.410;7.564;2023-04-22T10:43:42;99299.91;;;21.67;38.87
46223;BME280;31943;51.410;7.564;2023-04-22T10:49:08;99289.44;;;21.81;38.97
46223;BME280;31943;51.410;7.564;2023-04-22T10:51:39;99290.69;;;21.91;37.91
46223;BME280;31943;51.410;7.564;2023-04-22T10:54:05;99286.00;;;21.97;39.11
46223;BME280;31943;51.410;7.564;2023-04-22T10:56:31;99296.53;;;21.98;38.89
46223;BME280;31943;51.410;7.564;2023-04-22T10:58:58;99292.25;;;21.96;39.55
46223;BME280;31943;51.410;7.564;2023-04-22T11:01:26;99284.97;;;21.99;38.74
46223;BME280;31943;51.410;7.564;2023-04-22T11:03:52;99282.56;;;21.95;39.55
46223;BME280;31943;51.410;7.564;2023-04-22T11:06:19;99276.38;;;21.94;39.76
46223;BME280;31943;51.410;7.564;2023-04-22T11:08:46;99282.94;;;22.04;38.57
46223;BME280;31943;51.410;7.564;2023-04-22T11:11:13;99279.25;;;22.24;39.12
46223;BME280;31943;51.410;7.564;2023-04-22T11:13:47;99280.56;;;22.16;38.02
46223;BME280;31943;51.410;7.564;2023-04-22T11:16:14;99273.81;;;21.92;38.81
46223;BME280;31943;51.410;7.564;2023-04-22T11:18:40;99289.94;;;21.72;39.10
46223;BME280;31943;51.410;7.564;2023-04-22T11:21:06;99296.78;;;21.59;40.27
46223;BME280;31943;51.410;7.564;2023-04-22T11:23:32;99292.34;;;21.40;39.52
46223;BME280;31943;51.410;7.564;2023-04-22T11:25:59;99292.47;;;21.39;39.19
46223;BME280;31943;51.410;7.564;2023-04-22T11:28:25;99290.38;;;21.45;39.56
46223;BME280;31943;51.410;7.564;2023-04-22T11:30:52;99290.78;;;21.55;39.21
46223;BME280;31943;51.410;7.564;2023-04-22T11:33:26;99297.41;;;21.64;39.06
46223;BME280;31943;51.410;7.564;2023-04-22T11:35:52;99294.75;;;21.81;39.30
46223;BME280;31943;51.410;7.564;2023-04-22T11:38:19;99289.41;;;21.99;38.92
46223;BME280;31943;51.410;7.564;2023-04-22T11:40:45;99285.22;;;21.95;38.76
46223;BME280;31943;51.410;7.564;2023-04-22T11:43:11;99291.75;;;22.05;38.82
46223;BME280;31943;51.410;7.564;2023-04-22T11:45:38;99278.25;;;22.09;38.81
46223;BME280;31943;51.410;7.564;2023-04-22T11:48:05;99293.16;;;22.12;40.56
46223;BME280;31943;51.410;7.564;2023-04-22T11:50:37;99284.09;;;21.99;39.25
46223;BME280;31943;51.410;7.564;2023-04-22T11:53:04;99284.03;;;22.00;39.32
46223;BME280;31943;51.410;7.564;2023-04-22T11:55:39;99274.34;;;21.99;39.58
46223;BME280;31943;51.410;7.564;2023-04-22T11:58:07;99282.88;;;21.88;40.48
46223;BME280;31943;51.410;7.564;2023-04-22T12:00:34;99282.56;;;21.77;39.60
46223;BME280;31943;51.410;7.564;2023-04-22T12:03:01;99280.47;;;21.84;39.82
46223;BME280;31943;51.410;7.564;2023-04-22T12:05:36;99287.78;;;21.96;39.25
46223;BME280;31943;51.410;7.564;2023-04-22T12:08:05;99292.78;;;21.85;39.41
46223;BME280;31943;51.410;7.564;2023-04-22T12:10:31;99292.59;;;21.72;39.58
46223;BME280;31943;51.410;7.564;2023-04-22T12:12:57;99293.75;;;21.66;39.81
46223;BME280;31943;51.410;7.564;2023-04-22T12:15:24;99286.00;;;21.62;39.21
46223;BME280;31943;51.410;7.564;2023-04-22T12:17:50;99289.28;;;21.67;39.03
46223;BME280;31943;51.410;7.564;2023-04-22T12:20:15;99290.16;;;21.67;39.23
46223;BME280;31943;51.410;7.564;2023-04-22T12:22:42;99287.88;;;21.95;39.00
46223;BME280;31943;51.410;7.564;2023-04-22T12:25:08;99292.91;;;22.17;38.65
46223;BME280;31943;51.410;7.564;2023-04-22T12:27:34;99283.91;;;22.37;38.78
46223;BME280;31943;51.410;7.564;2023-04-22T12:29:59;99274.78;;;22.74;38.54
46223;BME280;31943;51.410;7.564;2023-04-22T12:32:25;99279.47;;;22.69;37.61
46223;BME280;31943;51.410;7.564;2023-04-22T12:34:51;99286.06;;;22.46;37.89
46223;BME280;31943;51.410;7.564;2023-04-22T12:37:17;99285.97;;;22.47;39.42
46223;BME280;31943;51.410;7.564;2023-04-22T12:39:45;99272.88;;;22.44;38.36
46223;BME280;31943;51.410;7.564;2023-04-22T12:42:11;99293.63;;;22.54;38.47
46223;BME280;31943;51.410;7.564;2023-04-22T12:44:36;99287.44;;;22.53;38.86
46223;BME280;31943;51.410;7.564;2023-04-22T12:47:02;99292.47;;;22.42;38.05
46223;BME280;31943;51.410;7.564;2023-04-22T12:49:28;99295.56;;;22.50;38.38
46223;BME280;31943;51.410;7.564;2023-04-22T12:51:54;99280.88;;;22.92;37.59
46223;BME280;31943;51.410;7.564;2023-04-22T12:54:20;99282.41;;;22.96;36.92
46223;BME280;31943;51.410;7.564;2023-04-22T12:56:48;99292.00;;;22.67;38.00
46223;BME280;31943;51.410;7.564;2023-04-22T12:59:13;99293.00;;;22.33;37.87
46223;BME280;31943;51.410;7.564;2023-04-22T13:01:39;99297.84;;;22.07;38.54
46223;BME280;31943;51.410;7.564;2023-04-22T13:04:09;99292.31;;;21.94;38.52
46223;BME280;31943;51.410;7.564;2023-04-22T13:06:34;99294.34;;;21.89;38.71
46223;BME280;31943;51.410;7.564;2023-04-22T13:09:00;99295.00;;;21.77;38.94